sensor_id;sensor_type;location;lat;lon;timestamp;temperature;humidity
30379;DHT22;17168;49.164;9.060;2022-10-16T00:01:23;19.60;99.90
30379;DHT22;17168;49.164;9.060;2022-10-16T00:03:56;19.40;99.90
30379;DHT22;17168;49.164;9.060;2022-10-16T00:06:29;19.30;99.90
30379;DHT22;17168;49.164;9.060;2022-10-16T00:09:02;19.20;99.90
30379;DHT22;17168;49.164;9.060;2022-10-16T00:11:36;19.00;99.90
30379;DHT22;17168;49.164;9.060;2022-10-16T00:14:13;18.90;99.90
30379;DHT22;17168;49.164;9.060;2022-10-16T00:16:45;18.80;99.90
30379;DHT22;17168;49.164;9.060;2022-10-16T00:19:17;18.70;99.90
30379;DHT22;17168;49.164;9.060;2022-10-16T00:21:48;18.60;99.90
30379;DHT22;17168;49.164;9.060;2022-10-16T00:24:20;18.50;99.90
30379;DHT22;17168;49.164;9.060;2022-10-16T00:26:52;18.40;99.90
30379;DHT22;17168;49.164;9.060;2022-10-16T00:29:25;18.40;99.90
30379;DHT22;17168;49.164;9.060;2022-10-16T00:31:57;18.30;99.90
30379;DHT22;17168;49.164;9.060;2022-10-16T00:34:29;18.20;99.90
30379;DHT22;17168;49.164;9.060;2022-10-16T00:37:01;18.10;99.90
30379;DHT22;17168;49.164;9.060;2022-10-16T00:39:32;18.10;99.90
30379;DHT22;17168;49.164;9.060;2022-10-16T00:42:05;18.00;99.90
30379;DHT22;17168;49.164;9.060;2022-10-16T00:44:48;18.00;99.90
30379;DHT22;17168;49.164;9.060;2022-10-16T00:47:24;17.90;99.90
30379;DHT22;17168;49.164;9.060;2022-10-16T00:50:01;17.90;99.90
30379;DHT22;17168;49.164;9.060;2022-10-16T00:52:35;17.80;99.90
30379;DHT22;17168;49.164;9.060;2022-10-16T00:55:08;17.80;99.90
30379;DHT22;17168;49.164;9.060;2022-10-16T00:57:41;17.80;99.90
30379;DHT22;17168;49.164;9.060;2022-10-16T01:00:18;17.80;99.90
30379;DHT22;17168;49.164;9.060;2022-10-16T01:02:52;17.80;99.90
30379;DHT22;17168;49.164;9.060;2022-10-16T01:05:26;17.70;99.90
30379;DHT22;17168;49.164;9.060;2022-10-16T01:08:08;17.70;99.90
30379;DHT22;17168;49.164;9.060;2022-10-16T01:10:45;17.70;99.90
30379;DHT22;17168;49.164;9.060;2022-10-16T01:13:23;17.70;99.90
30379;DHT22;17168;49.164;9.060;2022-10-16T01:16:03;17.70;99.90
30379;DHT22;17168;49.164;9.060;2022-10-16T01:18:41;17.70;99.90
30379;DHT22;17168;49.164;9.060;2022-10-16T01:21:18;17.70;99.90
30379;DHT22;17168;49.164;9.060;2022-10-16T01:23:59;17.70;99.90
30379;DHT22;17168;49.164;9.060;2022-10-16T01:26:46;17.70;99.90
30379;DHT22;17168;49.164;9.060;2022-10-16T01:29:26;17.70;99.90
30379;DHT22;17168;49.164;9.060;2022-10-16T01:32:02;17.70;99.90
30379;DHT22;17168;49.164;9.060;2022-10-16T01:34:42;17.70;99.90
30379;DHT22;17168;49.164;9.060;2022-10-16T01:37:27;17.70;99.90
30379;DHT22;17168;49.164;9.060;2022-10-16T01:40:04;17.70;99.90
30379;DHT22;17168;49.164;9.060;2022-10-16T01:42:40;17.70;99.90
30379;DHT22;17168;49.164;9.060;2022-10-16T01:45:16;17.70;99.90
30379;DHT22;17168;49.164;9.060;2022-10-16T01:47:51;17.70;99.90
30379;DHT22;17168;49.164;9.060;2022-10-16T01:50:24;17.70;99.90
30379;DHT22;17168;49.164;9.060;2022-10-16T01:52:58;17.70;99.90
30379;DHT22;17168;49.164;9.060;2022-10-16T01:55:33;17.70;99.90
30379;DHT22;17168;49.164;9.060;2022-10-16T01:58:07;17.70;99.90
30379;DHT22;17168;49.164;9.060;2022-10-16T02:00:43;17.80;99.90
30379;DHT22;17168;49.164;9.060;2022-10-16T02:03:18;17.80;99.90
30379;DHT22;17168;49.164;9.060;2022-10-16T02:05:53;17.80;99.90
30379;DHT22;17168;49.164;9.060;2022-10-16T02:08:28;17.80;99.90
30379;DHT22;17168;49.164;9.060;2022-10-16T02:11:01;17.80;99.90
30379;DHT22;17168;49.164;9.060;2022-10-16T02:13:37;17.80;99.90
30379;DHT22;17168;49.164;9.060;2022-10-16T02:16:12;17.80;99.90
30379;DHT22;17168;49.164;9.060;2022-10-16T02:18:44;17.90;99.90
30379;DHT22;17168;49.164;9.060;2022-10-16T02:21:21;17.80;99.90
30379;DHT22;17168;49.164;9.060;2022-10-16T02:24:00;17.90;99.90
30379;DHT22;17168;49.164;9.060;2022-10-16T02:26:39;17.90;99.90
30379;DHT22;17168;49.164;9.060;2022-10-16T02:29:14;17.90;99.90
30379;DHT22;17168;49.164;9.060;2022-10-16T02:31:52;17.90;99.90
30379;DHT22;17168;49.164;9.060;2022-10-16T02:34:26;17.90;99.90
30379;DHT22;17168;49.164;9.060;2022-10-16T02:36:58;17.90;99.90
30379;DHT22;17168;49.164;9.060;2022-10-16T02:39:31;17.90;99.90
30379;DHT22;17168;49.164;9.060;2022-10-16T02:42:04;17.90;99.90
30379;DHT22;17168;49.164;9.060;2022-10-16T02:44:36;17.90;99.90
30379;DHT22;17168;49.164;9.060;2022-10-16T02:47:09;17.90;99.90
30379;DHT22;17168;49.164;9.060;2022-10-16T02:49:46;17.90;99.90
30379;DHT22;17168;49.164;9.060;2022-10-16T02:52:17;17.90;99.90
30379;DHT22;17168;49.164;9.060;2022-10-16T02:54:49;17.90;99.90
30379;DHT22;17168;49.164;9.060;2022-10-16T02:57:21;17.90;99.90
30379;DHT22;17168;49.164;9.060;2022-10-16T02:59:53;18.00;99.90
30379;DHT22;17168;49.164;9.060;2022-10-16T03:02:26;17.90;99.90
30379;DHT22;17168;49.164;9.060;2022-10-16T03:04:58;17.90;99.90
30379;DHT22;17168;49.164;9.060;2022-10-16T03:07:30;17.90;99.90
30379;DHT22;17168;49.164;9.060;2022-10-16T03:10:02;17.90;99.90
30379;DHT22;17168;49.164;9.060;2022-10-16T03:12:34;17.90;99.90
30379;DHT22;17168;49.164;9.060;2022-10-16T03:15:07;17.90;99.90
30379;DHT22;17168;49.164;9.060;2022-10-16T03:17:40;17.90;99.90
30379;DHT22;17168;49.164;9.060;2022-10-16T03:20:12;17.90;99.90
30379;DHT22;17168;49.164;9.060;2022-10-16T03:22:44;17.90;99.90
30379;DHT22;17168;49.164;9.060;2022-10-16T03:25:16;17.90;99.90
30379;DHT22;17168;49.164;9.060;2022-10-16T03:27:47;17.90;99.90
30379;DHT22;17168;49.164;9.060;2022-10-16T03:30:19;17.90;99.90
30379;DHT22;17168;49.164;9.060;2022-10-16T03:32:53;17.90;99.90
30379;DHT22;17168;49.164;9.060;2022-10-16T03:35:25;17.90;99.90
30379;DHT22;17168;49.164;9.060;2022-10-16T03:37:57;18.00;99.90
30379;DHT22;17168;49.164;9.060;2022-10-16T03:40:29;17.90;99.90
30379;DHT22;17168;49.164;9.060;2022-10-16T03:43:03;17.90;99.90
30379;DHT22;17168;49.164;9.060;2022-10-16T03:45:35;17.90;99.90
30379;DHT22;17168;49.164;9.060;2022-10-16T03:48:08;17.90;99.90
30379;DHT22;17168;49.164;9.060;2022-10-16T03:50:40;17.90;99.90
30379;DHT22;17168;49.164;9.060;2022-10-16T03:53:12;17.90;99.90
30379;DHT22;17168;49.164;9.060;2022-10-16T03:55:44;17.90;99.90
30379;DHT22;17168;49.164;9.060;2022-10-16T03:58:16;17.90;99.90
30379;DHT22;17168;49.164;9.060;2022-10-16T04:00:48;17.90;99.90
30379;DHT22;17168;49.164;9.060;2022-10-16T04:03:21;17.90;99.90
30379;DHT22;17168;49.164;9.060;2022-10-16T04:05:54;17.90;99.90
30379;DHT22;17168;49.164;9.060;2022-10-16T04:08:26;17.90;99.90
30379;DHT22;17168;49.164;9.060;2022-10-16T04:10:58;17.90;99.90
30379;DHT22;17168;49.164;9.060;2022-10-16T04:13:30;17.90;99.90
30379;DHT22;17168;49.164;9.060;2022-10-16T04:16:02;18.00;99.90
30379;DHT22;17168;49.164;9.060;2022-10-16T04:18:35;17.90;99.90
30379;DHT22;17168;49.164;9.060;2022-10-16T04:21:07;17.90;99.90
30379;DHT22;17168;49.164;9.060;2022-10-16T04:23:39;17.90;99.90
30379;DHT22;17168;49.164;9.060;2022-10-16T04:26:12;17.90;99.90
30379;DHT22;17168;49.164;9.060;2022-10-16T04:28:43;17.90;99.90
30379;DHT22;17168;49.164;9.060;2022-10-16T04:31:15;17.90;99.90
30379;DHT22;17168;49.164;9.060;2022-10-16T04:33:48;17.90;99.90
30379;DHT22;17168;49.164;9.060;2022-10-16T04:36:20;17.90;99.90
30379;DHT22;17168;49.164;9.060;2022-10-16T04:38:57;17.90;99.90
30379;DHT22;17168;49.164;9.060;2022-10-16T04:41:29;17.90;99.90
30379;DHT22;17168;49.164;9.060;2022-10-16T04:44:00;17.90;99.90
30379;DHT22;17168;49.164;9.060;2022-10-16T04:46:32;17.90;99.90
30379;DHT22;17168;49.164;9.060;2022-10-16T04:49:06;17.90;99.90
30379;DHT22;17168;49.164;9.060;2022-10-16T04:51:37;17.90;99.90
30379;DHT22;17168;49.164;9.060;2022-10-16T04:54:09;17.80;99.90
30379;DHT22;17168;49.164;9.060;2022-10-16T04:56:41;17.80;99.90
30379;DHT22;17168;49.164;9.060;2022-10-16T04:59:19;17.80;99.90
30379;DHT22;17168;49.164;9.060;2022-10-16T05:01:51;17.80;99.90
30379;DHT22;17168;49.164;9.060;2022-10-16T05:04:24;17.80;99.90
30379;DHT22;17168;49.164;9.060;2022-10-16T05:06:56;17.80;99.90
30379;DHT22;17168;49.164;9.060;2022-10-16T05:09:28;17.80;99.90
30379;DHT22;17168;49.164;9.060;2022-10-16T05:12:00;17.80;99.90
30379;DHT22;17168;49.164;9.060;2022-10-16T05:14:32;17.80;99.90
30379;DHT22;17168;49.164;9.060;2022-10-16T05:17:04;17.80;99.90
30379;DHT22;17168;49.164;9.060;2022-10-16T05:19:37;17.80;99.90
30379;DHT22;17168;49.164;9.060;2022-10-16T05:22:09;17.80;99.90
30379;DHT22;17168;49.164;9.060;2022-10-16T05:24:40;17.80;99.90
30379;DHT22;17168;49.164;9.060;2022-10-16T05:27:12;17.80;99.90
30379;DHT22;17168;49.164;9.060;2022-10-16T05:29:50;17.80;99.90
30379;DHT22;17168;49.164;9.060;2022-10-16T05:32:22;17.80;99.90
30379;DHT22;17168;49.164;9.060;2022-10-16T05:34:55;17.80;99.90
30379;DHT22;17168;49.164;9.060;2022-10-16T05:37:27;17.80;99.90
30379;DHT22;17168;49.164;9.060;2022-10-16T05:39:59;17.70;99.90
30379;DHT22;17168;49.164;9.060;2022-10-16T05:42:31;17.80;99.90
30379;DHT22;17168;49.164;9.060;2022-10-16T05:45:04;17.80;99.90
30379;DHT22;17168;49.164;9.060;2022-10-16T05:47:36;17.70;99.90
30379;DHT22;17168;49.164;9.060;2022-10-16T05:50:09;17.70;99.90
30379;DHT22;17168;49.164;9.060;2022-10-16T05:52:41;17.70;99.90
30379;DHT22;17168;49.164;9.060;2022-10-16T05:55:13;17.70;99.90
30379;DHT22;17168;49.164;9.060;2022-10-16T05:57:45;17.70;99.90
30379;DHT22;17168;49.164;9.060;2022-10-16T06:00:17;17.70;99.90
30379;DHT22;17168;49.164;9.060;2022-10-16T06:02:49;17.70;99.90
30379;DHT22;17168;49.164;9.060;2022-10-16T06:05:22;17.70;99.90
30379;DHT22;17168;49.164;9.060;2022-10-16T06:07:54;17.60;99.90
30379;DHT22;17168;49.164;9.060;2022-10-16T06:10:26;17.60;99.90
30379;DHT22;17168;49.164;9.060;2022-10-16T06:12:57;17.60;99.90
30379;DHT22;17168;49.164;9.060;2022-10-16T06:15:30;17.70;99.90
30379;DHT22;17168;49.164;9.060;2022-10-16T06:18:01;17.60;99.90
30379;DHT22;17168;49.164;9.060;2022-10-16T06:20:34;17.60;99.90
30379;DHT22;17168;49.164;9.060;2022-10-16T06:23:06;17.70;99.90
30379;DHT22;17168;49.164;9.060;2022-10-16T06:25:38;17.60;99.90
30379;DHT22;17168;49.164;9.060;2022-10-16T06:28:10;17.60;99.90
30379;DHT22;17168;49.164;9.060;2022-10-16T06:30:42;17.60;99.90
30379;DHT22;17168;49.164;9.060;2022-10-16T06:33:17;17.60;99.90
30379;DHT22;17168;49.164;9.060;2022-10-16T06:35:50;17.60;99.90
30379;DHT22;17168;49.164;9.060;2022-10-16T06:38:22;17.60;99.90
30379;DHT22;17168;49.164;9.060;2022-10-16T06:40:54;17.60;99.90
30379;DHT22;17168;49.164;9.060;2022-10-16T06:43:26;17.60;99.90
30379;DHT22;17168;49.164;9.060;2022-10-16T06:45:59;17.60;99.90
30379;DHT22;17168;49.164;9.060;2022-10-16T06:48:31;17.60;99.90
30379;DHT22;17168;49.164;9.060;2022-10-16T06:51:06;17.60;99.90
30379;DHT22;17168;49.164;9.060;2022-10-16T06:53:41;17.60;99.90
30379;DHT22;17168;49.164;9.060;2022-10-16T06:56:33;17.60;99.90
30379;DHT22;17168;49.164;9.060;2022-10-16T06:59:05;17.60;99.90
30379;DHT22;17168;49.164;9.060;2022-10-16T07:01:37;17.60;99.90
30379;DHT22;17168;49.164;9.060;2022-10-16T07:04:09;17.60;99.90
30379;DHT22;17168;49.164;9.060;2022-10-16T07:06:42;17.70;99.90
30379;DHT22;17168;49.164;9.060;2022-10-16T07:09:14;17.60;99.90
30379;DHT22;17168;49.164;9.060;2022-10-16T07:11:46;17.70;99.90
30379;DHT22;17168;49.164;9.060;2022-10-16T07:14:19;17.60;99.90
30379;DHT22;17168;49.164;9.060;2022-10-16T07:16:51;17.70;99.90
30379;DHT22;17168;49.164;9.060;2022-10-16T07:19:23;17.60;99.90
30379;DHT22;17168;49.164;9.060;2022-10-16T07:22:01;17.70;99.90
30379;DHT22;17168;49.164;9.060;2022-10-16T07:24:33;17.70;99.90
30379;DHT22;17168;49.164;9.060;2022-10-16T07:27:04;17.70;99.90
30379;DHT22;17168;49.164;9.060;2022-10-16T07:29:36;17.70;99.90
30379;DHT22;17168;49.164;9.060;2022-10-16T07:32:08;17.70;99.90
30379;DHT22;17168;49.164;9.060;2022-10-16T07:34:40;17.80;99.90
30379;DHT22;17168;49.164;9.060;2022-10-16T07:37:14;17.80;99.90
30379;DHT22;17168;49.164;9.060;2022-10-16T07:39:45;17.80;99.90
30379;DHT22;17168;49.164;9.060;2022-10-16T07:42:17;17.90;99.90
30379;DHT22;17168;49.164;9.060;2022-10-16T07:44:49;17.90;99.90
30379;DHT22;17168;49.164;9.060;2022-10-16T07:47:21;18.00;99.90
30379;DHT22;17168;49.164;9.060;2022-10-16T07:49:53;18.00;99.90
30379;DHT22;17168;49.164;9.060;2022-10-16T07:52:26;18.10;99.90
30379;DHT22;17168;49.164;9.060;2022-10-16T07:54:58;18.10;99.90
30379;DHT22;17168;49.164;9.060;2022-10-16T07:57:30;18.20;99.90
30379;DHT22;17168;49.164;9.060;2022-10-16T08:00:02;18.20;99.90
30379;DHT22;17168;49.164;9.060;2022-10-16T08:02:34;18.30;99.90
30379;DHT22;17168;49.164;9.060;2022-10-16T08:05:06;18.30;99.90
30379;DHT22;17168;49.164;9.060;2022-10-16T08:07:40;18.40;99.90
30379;DHT22;17168;49.164;9.060;2022-10-16T08:10:16;18.40;99.90
30379;DHT22;17168;49.164;9.060;2022-10-16T08:12:48;18.50;99.90
30379;DHT22;17168;49.164;9.060;2022-10-16T08:15:20;18.50;99.90
30379;DHT22;17168;49.164;9.060;2022-10-16T08:17:57;18.60;99.90
30379;DHT22;17168;49.164;9.060;2022-10-16T08:20:31;18.60;99.90
30379;DHT22;17168;49.164;9.060;2022-10-16T08:23:05;18.70;99.90
30379;DHT22;17168;49.164;9.060;2022-10-16T08:25:37;18.80;99.90
30379;DHT22;17168;49.164;9.060;2022-10-16T08:28:10;18.80;99.90
30379;DHT22;17168;49.164;9.060;2022-10-16T08:30:42;18.90;99.90
30379;DHT22;17168;49.164;9.060;2022-10-16T08:33:14;19.00;99.90
30379;DHT22;17168;49.164;9.060;2022-10-16T08:35:51;19.00;99.90
30379;DHT22;17168;49.164;9.060;2022-10-16T08:38:24;19.10;99.90
30379;DHT22;17168;49.164;9.060;2022-10-16T08:41:02;19.20;99.90
30379;DHT22;17168;49.164;9.060;2022-10-16T09:15:22;18.50;99.90
30379;DHT22;17168;49.164;9.060;2022-10-16T09:18:01;18.50;99.90
30379;DHT22;17168;49.164;9.060;2022-10-16T09:20:50;18.60;99.90
30379;DHT22;17168;49.164;9.060;2022-10-16T09:23:26;18.80;99.90
30379;DHT22;17168;49.164;9.060;2022-10-16T09:25:58;19.00;99.90
30379;DHT22;17168;49.164;9.060;2022-10-16T09:28:30;19.20;99.90
30379;DHT22;17168;49.164;9.060;2022-10-16T09:31:04;19.40;99.90
30379;DHT22;17168;49.164;9.060;2022-10-16T09:33:39;19.50;99.90
30379;DHT22;17168;49.164;9.060;2022-10-16T09:36:13;19.70;99.90
30379;DHT22;17168;49.164;9.060;2022-10-16T09:38:45;19.80;99.90
30379;DHT22;17168;49.164;9.060;2022-10-16T09:41:18;19.90;99.90
30379;DHT22;17168;49.164;9.060;2022-10-16T09:43:54;20.00;99.90
30379;DHT22;17168;49.164;9.060;2022-10-16T09:46:30;20.20;99.90
30379;DHT22;17168;49.164;9.060;2022-10-16T09:49:04;20.30;99.90
30379;DHT22;17168;49.164;9.060;2022-10-16T09:51:37;20.40;99.90
30379;DHT22;17168;49.164;9.060;2022-10-16T09:54:14;20.50;99.90
30379;DHT22;17168;49.164;9.060;2022-10-16T09:56:47;20.60;99.90
30379;DHT22;17168;49.164;9.060;2022-10-16T09:59:23;20.80;99.90
30379;DHT22;17168;49.164;9.060;2022-10-16T10:02:00;20.80;99.90
30379;DHT22;17168;49.164;9.060;2022-10-16T10:04:40;20.90;99.90
30379;DHT22;17168;49.164;9.060;2022-10-16T10:07:18;21.00;99.90
30379;DHT22;17168;49.164;9.060;2022-10-16T10:09:50;21.00;99.90
30379;DHT22;17168;49.164;9.060;2022-10-16T10:12:24;21.00;99.90
30379;DHT22;17168;49.164;9.060;2022-10-16T10:15:03;21.00;99.90
30379;DHT22;17168;49.164;9.060;2022-10-16T10:17:47;21.10;99.90
30379;DHT22;17168;49.164;9.060;2022-10-16T10:20:25;21.10;99.90
30379;DHT22;17168;49.164;9.060;2022-10-16T10:22:57;21.20;99.90
30379;DHT22;17168;49.164;9.060;2022-10-16T10:25:45;21.30;99.90
30379;DHT22;17168;49.164;9.060;2022-10-16T10:28:30;21.30;99.90
30379;DHT22;17168;49.164;9.060;2022-10-16T10:31:14;21.30;99.90
30379;DHT22;17168;49.164;9.060;2022-10-16T10:33:54;21.40;99.90
30379;DHT22;17168;49.164;9.060;2022-10-16T10:36:33;21.40;99.90
30379;DHT22;17168;49.164;9.060;2022-10-16T10:39:08;21.40;99.90
30379;DHT22;17168;49.164;9.060;2022-10-16T10:42:04;21.50;99.90
30379;DHT22;17168;49.164;9.060;2022-10-16T10:44:59;21.60;99.90
30379;DHT22;17168;49.164;9.060;2022-10-16T10:47:42;21.70;99.90
30379;DHT22;17168;49.164;9.060;2022-10-16T10:50:24;21.80;99.90
30379;DHT22;17168;49.164;9.060;2022-10-16T10:53:01;22.00;99.90
30379;DHT22;17168;49.164;9.060;2022-10-16T10:55:40;22.10;99.90
30379;DHT22;17168;49.164;9.060;2022-10-16T10:58:46;22.30;99.90
30379;DHT22;17168;49.164;9.060;2022-10-16T11:01:26;22.30;99.90
30379;DHT22;17168;49.164;9.060;2022-10-16T11:04:25;22.50;99.90
30379;DHT22;17168;49.164;9.060;2022-10-16T11:07:01;22.50;99.90
30379;DHT22;17168;49.164;9.060;2022-10-16T11:09:38;22.50;99.90
30379;DHT22;17168;49.164;9.060;2022-10-16T11:12:14;22.60;99.90
30379;DHT22;17168;49.164;9.060;2022-10-16T11:14:51;22.70;99.90
30379;DHT22;17168;49.164;9.060;2022-10-16T11:17:29;22.70;99.90
30379;DHT22;17168;49.164;9.060;2022-10-16T11:20:05;22.80;99.90
30379;DHT22;17168;49.164;9.060;2022-10-16T11:23:10;22.90;99.90
30379;DHT22;17168;49.164;9.060;2022-10-16T11:25:46;23.20;99.90
30379;DHT22;17168;49.164;9.060;2022-10-16T11:28:21;23.50;99.90
30379;DHT22;17168;49.164;9.060;2022-10-16T11:31:07;23.80;99.90
30379;DHT22;17168;49.164;9.060;2022-10-16T11:33:42;24.00;99.90
30379;DHT22;17168;49.164;9.060;2022-10-16T11:36:19;24.20;99.90
30379;DHT22;17168;49.164;9.060;2022-10-16T11:38:58;24.50;99.90
30379;DHT22;17168;49.164;9.060;2022-10-16T11:41:34;24.90;99.90
30379;DHT22;17168;49.164;9.060;2022-10-16T11:44:18;25.40;99.90
30379;DHT22;17168;49.164;9.060;2022-10-16T11:46:59;26.00;99.90
30379;DHT22;17168;49.164;9.060;2022-10-16T11:49:57;26.40;99.90
30379;DHT22;17168;49.164;9.060;2022-10-16T11:52:36;26.40;99.90
30379;DHT22;17168;49.164;9.060;2022-10-16T11:55:15;26.20;99.90
30379;DHT22;17168;49.164;9.060;2022-10-16T11:57:51;26.00;99.90
30379;DHT22;17168;49.164;9.060;2022-10-16T12:00:25;25.80;99.90
30379;DHT22;17168;49.164;9.060;2022-10-16T12:03:04;25.70;99.90
30379;DHT22;17168;49.164;9.060;2022-10-16T12:05:52;25.60;99.90
30379;DHT22;17168;49.164;9.060;2022-10-16T12:08:27;25.50;99.90
30379;DHT22;17168;49.164;9.060;2022-10-16T12:11:08;25.50;99.90
30379;DHT22;17168;49.164;9.060;2022-10-16T12:13:42;25.60;99.90
30379;DHT22;17168;49.164;9.060;2022-10-16T12:16:23;25.60;99.90
30379;DHT22;17168;49.164;9.060;2022-10-16T12:19:11;25.50;99.90
30379;DHT22;17168;49.164;9.060;2022-10-16T12:21:45;25.60;99.90
30379;DHT22;17168;49.164;9.060;2022-10-16T12:24:22;25.60;99.90
30379;DHT22;17168;49.164;9.060;2022-10-16T12:27:19;25.60;99.90
30379;DHT22;17168;49.164;9.060;2022-10-16T12:29:55;25.80;99.90
30379;DHT22;17168;49.164;9.060;2022-10-16T12:32:30;25.90;99.90
30379;DHT22;17168;49.164;9.060;2022-10-16T12:35:19;26.00;99.90
30379;DHT22;17168;49.164;9.060;2022-10-16T12:37:52;26.10;99.60
30379;DHT22;17168;49.164;9.060;2022-10-16T12:40:27;26.40;99.70
30379;DHT22;17168;49.164;9.060;2022-10-16T12:43:12;26.70;98.60
30379;DHT22;17168;49.164;9.060;2022-10-16T12:45:44;27.10;98.30
30379;DHT22;17168;49.164;9.060;2022-10-16T12:48:21;27.60;98.10
30379;DHT22;17168;49.164;9.060;2022-10-16T12:51:20;28.00;96.80
30379;DHT22;17168;49.164;9.060;2022-10-16T12:53:59;27.90;96.30
30379;DHT22;17168;49.164;9.060;2022-10-16T12:56:41;27.90;95.50
30379;DHT22;17168;49.164;9.060;2022-10-16T12:59:29;27.80;94.70
30379;DHT22;17168;49.164;9.060;2022-10-16T13:02:18;27.50;94.30
30379;DHT22;17168;49.164;9.060;2022-10-16T13:05:19;27.20;94.40
30379;DHT22;17168;49.164;9.060;2022-10-16T13:08:02;27.00;94.70
30379;DHT22;17168;49.164;9.060;2022-10-16T13:10:40;26.90;95.60
30379;DHT22;17168;49.164;9.060;2022-10-16T13:13:34;26.80;95.30
30379;DHT22;17168;49.164;9.060;2022-10-16T13:16:17;26.70;95.10
30379;DHT22;17168;49.164;9.060;2022-10-16T13:19:00;26.50;94.10
30379;DHT22;17168;49.164;9.060;2022-10-16T13:21:43;26.30;94.70
30379;DHT22;17168;49.164;9.060;2022-10-16T13:24:26;26.20;95.30
30379;DHT22;17168;49.164;9.060;2022-10-16T13:27:09;26.00;94.10
30379;DHT22;17168;49.164;9.060;2022-10-16T13:29:45;25.80;92.80
30379;DHT22;17168;49.164;9.060;2022-10-16T13:32:24;25.70;92.20
30379;DHT22;17168;49.164;9.060;2022-10-16T13:34:57;25.50;92.30
30379;DHT22;17168;49.164;9.060;2022-10-16T13:37:29;25.40;92.50
30379;DHT22;17168;49.164;9.060;2022-10-16T13:40:18;25.30;94.00
30379;DHT22;17168;49.164;9.060;2022-10-16T13:42:50;25.20;93.30
30379;DHT22;17168;49.164;9.060;2022-10-16T13:45:25;25.10;94.60
30379;DHT22;17168;49.164;9.060;2022-10-16T13:48:06;25.00;94.90
30379;DHT22;17168;49.164;9.060;2022-10-16T13:50:40;24.90;95.60
30379;DHT22;17168;49.164;9.060;2022-10-16T13:53:14;24.70;96.50
30379;DHT22;17168;49.164;9.060;2022-10-16T13:55:45;24.60;97.30
30379;DHT22;17168;49.164;9.060;2022-10-16T13:58:17;24.50;97.20
30379;DHT22;17168;49.164;9.060;2022-10-16T14:00:54;24.40;98.10
30379;DHT22;17168;49.164;9.060;2022-10-16T14:03:29;24.40;99.10
30379;DHT22;17168;49.164;9.060;2022-10-16T14:06:03;24.30;99.90
30379;DHT22;17168;49.164;9.060;2022-10-16T14:08:35;24.20;99.90
30379;DHT22;17168;49.164;9.060;2022-10-16T14:11:07;24.20;99.90
30379;DHT22;17168;49.164;9.060;2022-10-16T14:13:43;24.20;99.90
30379;DHT22;17168;49.164;9.060;2022-10-16T14:16:18;24.30;99.60
30379;DHT22;17168;49.164;9.060;2022-10-16T14:18:56;24.20;98.60
30379;DHT22;17168;49.164;9.060;2022-10-16T14:21:29;24.20;98.20
30379;DHT22;17168;49.164;9.060;2022-10-16T14:24:10;24.20;98.20
30379;DHT22;17168;49.164;9.060;2022-10-16T14:26:43;24.10;98.00
30379;DHT22;17168;49.164;9.060;2022-10-16T14:29:21;24.10;97.70
30379;DHT22;17168;49.164;9.060;2022-10-16T14:31:55;24.00;97.30
30379;DHT22;17168;49.164;9.060;2022-10-16T14:34:31;24.00;97.20
30379;DHT22;17168;49.164;9.060;2022-10-16T14:37:22;24.00;98.50
30379;DHT22;17168;49.164;9.060;2022-10-16T14:40:00;23.90;98.60
30379;DHT22;17168;49.164;9.060;2022-10-16T14:42:33;23.90;99.60
30379;DHT22;17168;49.164;9.060;2022-10-16T14:45:09;23.90;99.90
30379;DHT22;17168;49.164;9.060;2022-10-16T14:47:48;23.90;99.90
30379;DHT22;17168;49.164;9.060;2022-10-16T14:50:22;23.80;99.90
30379;DHT22;17168;49.164;9.060;2022-10-16T14:52:54;23.80;99.90
30379;DHT22;17168;49.164;9.060;2022-10-16T14:55:26;23.80;99.90
30379;DHT22;17168;49.164;9.060;2022-10-16T14:57:58;23.70;99.90
30379;DHT22;17168;49.164;9.060;2022-10-16T15:00:31;23.70;99.90
30379;DHT22;17168;49.164;9.060;2022-10-16T15:03:03;23.70;99.90
30379;DHT22;17168;49.164;9.060;2022-10-16T15:05:36;23.60;99.90
30379;DHT22;17168;49.164;9.060;2022-10-16T15:08:08;23.60;99.90
30379;DHT22;17168;49.164;9.060;2022-10-16T15:10:42;23.60;99.90
30379;DHT22;17168;49.164;9.060;2022-10-16T15:13:15;23.60;99.90
30379;DHT22;17168;49.164;9.060;2022-10-16T15:15:47;23.60;99.90
30379;DHT22;17168;49.164;9.060;2022-10-16T15:18:20;23.60;99.90
30379;DHT22;17168;49.164;9.060;2022-10-16T15:20:54;23.60;99.90
30379;DHT22;17168;49.164;9.060;2022-10-16T15:23:26;23.60;99.90
30379;DHT22;17168;49.164;9.060;2022-10-16T15:25:59;23.60;99.90
30379;DHT22;17168;49.164;9.060;2022-10-16T15:28:31;23.60;99.90
30379;DHT22;17168;49.164;9.060;2022-10-16T15:31:04;23.70;99.90
30379;DHT22;17168;49.164;9.060;2022-10-16T15:33:36;23.70;99.90
30379;DHT22;17168;49.164;9.060;2022-10-16T15:36:12;23.70;99.90
30379;DHT22;17168;49.164;9.060;2022-10-16T15:38:43;23.70;99.90
30379;DHT22;17168;49.164;9.060;2022-10-16T15:41:17;23.70;99.90
30379;DHT22;17168;49.164;9.060;2022-10-16T15:43:49;23.70;99.90
30379;DHT22;17168;49.164;9.060;2022-10-16T15:46:23;23.70;99.90
30379;DHT22;17168;49.164;9.060;2022-10-16T15:48:56;23.70;99.90
30379;DHT22;17168;49.164;9.060;2022-10-16T15:51:30;23.60;99.90
30379;DHT22;17168;49.164;9.060;2022-10-16T15:54:04;23.70;99.90
30379;DHT22;17168;49.164;9.060;2022-10-16T15:56:35;23.60;99.90
30379;DHT22;17168;49.164;9.060;2022-10-16T15:59:08;23.50;99.90
30379;DHT22;17168;49.164;9.060;2022-10-16T16:01:40;23.50;99.90
30379;DHT22;17168;49.164;9.060;2022-10-16T16:04:12;23.40;99.90
30379;DHT22;17168;49.164;9.060;2022-10-16T16:07:05;23.30;99.90
30379;DHT22;17168;49.164;9.060;2022-10-16T16:09:38;23.20;99.90
30379;DHT22;17168;49.164;9.060;2022-10-16T16:22:48;23.10;99.90
30379;DHT22;17168;49.164;9.060;2022-10-16T16:25:19;22.80;99.90
30379;DHT22;17168;49.164;9.060;2022-10-16T16:27:51;22.70;99.90
30379;DHT22;17168;49.164;9.060;2022-10-16T16:30:23;22.60;99.90
30379;DHT22;17168;49.164;9.060;2022-10-16T16:32:58;22.50;99.90
30379;DHT22;17168;49.164;9.060;2022-10-16T16:35:30;22.50;99.90
30379;DHT22;17168;49.164;9.060;2022-10-16T16:38:03;22.40;99.90
30379;DHT22;17168;49.164;9.060;2022-10-16T16:40:35;22.30;99.90
30379;DHT22;17168;49.164;9.060;2022-10-16T16:43:07;22.30;99.90
30379;DHT22;17168;49.164;9.060;2022-10-16T16:45:39;22.20;99.90
30379;DHT22;17168;49.164;9.060;2022-10-16T16:48:10;22.10;99.90
30379;DHT22;17168;49.164;9.060;2022-10-16T16:50:42;22.00;99.90
30379;DHT22;17168;49.164;9.060;2022-10-16T16:53:15;22.00;99.90
30379;DHT22;17168;49.164;9.060;2022-10-16T16:55:50;21.90;99.90
30379;DHT22;17168;49.164;9.060;2022-10-16T16:58:22;21.80;99.90
30379;DHT22;17168;49.164;9.060;2022-10-16T17:00:54;21.80;99.90
30379;DHT22;17168;49.164;9.060;2022-10-16T17:03:42;21.70;99.90